createdAt,value
2023-02-17T00:01:33.219Z,98966.00
2023-02-17T00:04:00.488Z,98963.22
2023-02-17T00:06:30.253Z,98957.00
2023-02-17T00:08:57.967Z,98956.06
2023-02-17T00:11:24.632Z,98962.47
2023-02-17T00:13:53.158Z,98961.22
2023-02-17T00:16:24.492Z,98947.91
2023-02-17T00:19:01.868Z,98958.41
2023-02-17T00:21:32.068Z,98946.13
2023-02-17T00:24:00.209Z,98957.47
2023-02-17T00:26:27.224Z,98960.53
2023-02-17T00:28:54.335Z,98955.13
2023-02-17T00:31:23.433Z,98947.72
2023-02-17T00:33:50.298Z,98953.28
2023-02-17T00:36:20.012Z,98954.66
2023-02-17T00:38:50.306Z,98952.38
2023-02-17T00:41:18.531Z,98951.28
2023-02-17T00:43:46.040Z,98950.34
2023-02-17T00:46:15.066Z,98950.19
2023-02-17T00:48:41.791Z,98944.25
2023-02-17T00:51:08.855Z,98947.88
2023-02-17T00:53:35.760Z,98947.56
2023-02-17T00:56:03.853Z,98949.34
2023-02-17T00:58:30.758Z,98940.69
2023-02-17T01:00:58.650Z,98945.00
2023-02-17T01:03:26.428Z,98943.84
2023-02-17T01:05:59.779Z,98953.16
2023-02-17T01:08:26.330Z,98946.94
2023-02-17T01:10:53.927Z,98948.75
2023-02-17T01:13:21.197Z,98931.34
2023-02-17T01:15:56.861Z,98935.66
2023-02-17T01:18:24.760Z,98930.63
2023-02-17T01:20:52.625Z,98927.63
2023-02-17T01:23:19.505Z,98925.84
2023-02-17T01:25:47.787Z,98928.47
2023-02-17T01:28:20.182Z,98921.69
2023-02-17T01:30:47.837Z,98914.50
2023-02-17T01:33:14.846Z,98903.91
2023-02-17T01:35:41.504Z,98908.81
2023-02-17T01:38:08.027Z,98901.47
2023-02-17T01:40:34.607Z,98904.78
2023-02-17T01:43:01.179Z,98891.72
2023-02-17T01:45:37.180Z,98883.09
2023-02-17T01:48:14.521Z,98886.97
2023-02-17T01:50:58.357Z,98878.50
2023-02-17T01:53:35.550Z,98876.47
2023-02-17T01:56:03.653Z,98875.47
2023-02-17T01:58:33.455Z,98866.31
2023-02-17T02:01:04.917Z,98867.78
2023-02-17T02:03:34.662Z,98862.59
2023-02-17T02:06:25.669Z,98857.94
2023-02-17T02:09:06.650Z,98850.25
2023-02-17T02:11:35.546Z,98857.00
2023-02-17T02:14:06.780Z,98847.25
2023-02-17T02:17:14.408Z,98855.50
2023-02-17T02:20:44.452Z,98846.25
2023-02-17T02:23:37.203Z,98840.06
2023-02-17T02:26:39.708Z,98837.03
2023-02-17T02:29:34.628Z,98834.41
2023-02-17T02:32:57.016Z,98829.91
2023-02-17T02:35:46.380Z,98838.22
2023-02-17T02:38:28.801Z,98828.13
2023-02-17T02:41:20.132Z,98823.06
2023-02-17T02:43:54.730Z,98825.94
2023-02-17T02:46:21.422Z,98824.66
2023-02-17T02:48:50.714Z,98817.53
2023-02-17T02:51:36.005Z,98817.53
2023-02-17T02:54:28.503Z,98815.53
2023-02-17T02:57:10.657Z,98809.44
2023-02-17T03:00:10.962Z,98806.13
2023-02-17T03:03:26.251Z,98813.59
2023-02-17T03:06:19.816Z,98822.09
2023-02-17T03:08:58.535Z,98816.69
2023-02-17T03:11:32.673Z,98820.34
2023-02-17T03:14:12.703Z,98808.13
2023-02-17T03:16:41.478Z,98806.97
2023-02-17T03:19:10.632Z,98805.25
2023-02-17T03:21:53.257Z,98816.97
2023-02-17T03:24:20.345Z,98814.00
2023-02-17T03:26:46.880Z,98803.16
2023-02-17T03:29:13.436Z,98799.41
2023-02-17T03:31:41.636Z,98807.13
2023-02-17T03:34:08.747Z,98799.16
2023-02-17T03:36:35.314Z,98788.47
2023-02-17T03:39:02.047Z,98798.03
2023-02-17T03:41:28.654Z,98785.53
2023-02-17T03:43:55.375Z,98791.72
2023-02-17T03:46:22.051Z,98790.94
2023-02-17T03:48:48.661Z,98798.16
2023-02-17T03:51:23.889Z,98793.00
2023-02-17T03:53:51.717Z,98794.78
2023-02-17T03:56:19.443Z,98799.25
2023-02-17T03:58:46.099Z,98789.16
2023-02-17T04:01:14.112Z,98788.41
2023-02-17T04:03:41.840Z,98785.34
2023-02-17T04:06:09.939Z,98779.06
2023-02-17T04:08:38.083Z,98796.69
2023-02-17T04:11:07.427Z,98792.16
2023-02-17T04:13:35.000Z,98803.91
2023-02-17T04:16:05.534Z,98803.63
2023-02-17T04:18:32.957Z,98805.69
2023-02-17T04:20:59.806Z,98812.63
2023-02-17T04:23:26.617Z,98808.13
2023-02-17T04:25:53.095Z,98812.47
2023-02-17T04:28:21.558Z,98809.56
2023-02-17T04:30:50.671Z,98813.59
2023-02-17T04:33:17.652Z,98813.81
2023-02-17T04:35:44.301Z,98810.25
2023-02-17T04:38:11.612Z,98819.91
2023-02-17T04:40:38.940Z,98813.72
2023-02-17T04:43:05.968Z,98814.66
2023-02-17T04:45:32.501Z,98820.47
2023-02-17T04:47:58.958Z,98820.22
2023-02-17T04:50:25.566Z,98827.25
2023-02-17T04:52:52.175Z,98820.31
2023-02-17T04:55:18.869Z,98822.09
2023-02-17T04:57:45.347Z,98829.72
2023-02-17T05:00:12.661Z,98819.03
2023-02-17T05:02:39.473Z,98825.19
2023-02-17T05:05:06.539Z,98815.78
2023-02-17T05:07:33.081Z,98820.31
2023-02-17T05:10:02.400Z,98820.22
2023-02-17T05:12:28.861Z,98814.13
2023-02-17T05:14:55.330Z,98801.91
2023-02-17T05:17:21.890Z,98812.59
2023-02-17T05:19:48.392Z,98804.63
2023-02-17T05:22:14.848Z,98804.81
2023-02-17T05:24:41.334Z,98796.84
2023-02-17T05:27:08.029Z,98796.66
2023-02-17T05:29:35.194Z,98803.44
2023-02-17T05:32:01.719Z,98787.00
2023-02-17T05:34:33.346Z,98786.91
2023-02-17T05:36:59.837Z,98787.06
2023-02-17T05:39:26.350Z,98790.31
2023-02-17T05:41:53.015Z,98794.03
2023-02-17T05:44:19.580Z,98786.84
2023-02-17T05:46:46.200Z,98791.03
2023-02-17T05:49:12.789Z,98786.63
2023-02-17T05:51:39.481Z,98787.28
2023-02-17T05:54:06.337Z,98786.38
2023-02-17T05:56:32.927Z,98785.44
2023-02-17T05:59:00.566Z,98780.34
2023-02-17T06:01:27.607Z,98778.69
2023-02-17T06:03:54.110Z,98786.72
2023-02-17T06:06:20.658Z,98793.50
2023-02-17T06:08:47.382Z,98795.13
2023-02-17T06:11:13.865Z,98792.56
2023-02-17T06:13:40.397Z,98789.19
2023-02-17T06:16:07.422Z,98798.84
2023-02-17T06:18:34.251Z,98795.13
2023-02-17T06:21:00.936Z,98803.91
2023-02-17T06:23:27.818Z,98804.00
2023-02-17T06:25:54.712Z,98800.44
2023-02-17T06:28:21.267Z,98802.91
2023-02-17T06:30:47.843Z,98802.91
2023-02-17T06:33:14.379Z,98802.06
2023-02-17T06:35:40.958Z,98800.09
2023-02-17T06:38:07.574Z,98801.88
2023-02-17T06:40:34.056Z,98787.41
2023-02-17T06:43:00.642Z,98791.81
2023-02-17T06:45:29.860Z,98791.53
2023-02-17T06:47:56.374Z,98788.91
2023-02-17T06:50:27.971Z,98784.09
2023-02-17T06:52:54.442Z,98785.38
2023-02-17T06:55:23.560Z,98798.69
2023-02-17T06:57:50.025Z,98799.28
2023-02-17T07:00:16.889Z,98802.50
2023-02-17T07:02:43.414Z,98802.66
2023-02-17T07:05:10.036Z,98811.38
2023-02-17T07:07:41.023Z,98810.53
2023-02-17T07:10:08.343Z,98808.41
2023-02-17T07:12:34.805Z,98810.78
2023-02-17T07:15:01.286Z,98805.19
2023-02-17T07:17:27.726Z,98810.16
2023-02-17T07:19:54.237Z,98808.19
2023-02-17T07:22:21.493Z,98808.28
2023-02-17T07:24:47.923Z,98807.03
2023-02-17T07:27:14.836Z,98805.53
2023-02-17T07:29:41.297Z,98813.22
2023-02-17T07:32:07.861Z,98815.59
2023-02-17T07:34:36.827Z,98808.47
2023-02-17T07:37:03.306Z,98816.94
2023-02-17T07:39:29.903Z,98824.53
2023-02-17T07:42:00.833Z,98824.38
2023-02-17T07:44:28.389Z,98820.78
2023-02-17T07:46:55.268Z,98826.81
2023-02-17T07:49:21.713Z,98825.88
2023-02-17T07:51:48.266Z,98825.69
2023-02-17T07:54:15.293Z,98817.03
2023-02-17T07:56:41.925Z,98823.91
2023-02-17T07:59:16.329Z,98825.97
2023-02-17T08:01:43.288Z,98832.16
2023-02-17T08:04:09.923Z,98832.16
2023-02-17T08:06:39.879Z,98822.69
2023-02-17T08:09:25.297Z,98817.78
2023-02-17T08:12:10.560Z,98819.94
2023-02-17T08:14:38.326Z,98824.66
2023-02-17T08:17:06.108Z,98823.06
2023-02-17T08:19:47.060Z,98826.72
2023-02-17T08:22:18.717Z,98824.09
2023-02-17T08:24:45.556Z,98822.41
2023-02-17T08:27:14.667Z,98811.78
2023-02-17T08:29:41.957Z,98813.22
2023-02-17T08:32:09.440Z,98810.38
2023-02-17T08:34:36.545Z,98817.38
2023-02-17T08:37:06.782Z,98817.94
2023-02-17T08:39:35.281Z,98825.16
2023-02-17T08:42:03.742Z,98824.31
2023-02-17T08:44:30.368Z,98820.66
2023-02-17T08:46:56.828Z,98819.34
2023-02-17T08:49:28.451Z,98821.03
2023-02-17T08:51:54.989Z,98811.28
2023-02-17T08:54:21.807Z,98812.81
2023-02-17T08:56:48.371Z,98821.03
2023-02-17T08:59:15.116Z,98826.13
2023-02-17T09:01:43.321Z,98820.88
2023-02-17T09:04:13.813Z,98825.59
2023-02-17T09:06:48.850Z,98824.84
2023-02-17T09:09:22.536Z,98821.75
2023-02-17T09:11:49.547Z,98828.31
2023-02-17T09:14:16.305Z,98823.91
2023-02-17T09:16:42.872Z,98831.53
2023-02-17T09:19:09.428Z,98836.41
2023-02-17T09:21:36.003Z,98821.66
2023-02-17T09:24:02.508Z,98822.22
2023-02-17T09:26:29.137Z,98816.78
2023-02-17T09:28:55.728Z,98824.50
2023-02-17T09:31:26.914Z,98823.25
2023-02-17T09:33:54.478Z,98823.72
2023-02-17T09:36:34.710Z,98831.63
2023-02-17T09:39:01.728Z,98831.06
2023-02-17T09:41:44.846Z,98831.06
2023-02-17T09:44:40.731Z,98829.84
2023-02-17T09:47:26.982Z,98818.19
2023-02-17T09:50:03.080Z,98822.31
2023-02-17T09:52:42.198Z,98821.00
2023-02-17T09:55:30.620Z,98824.00
2023-02-17T09:58:11.694Z,98823.34
2023-02-17T10:00:50.193Z,98827.53
2023-02-17T10:03:44.790Z,98821.91
2023-02-17T10:06:24.660Z,98811.84
2023-02-17T10:08:57.649Z,98819.69
2023-02-17T10:11:36.206Z,98825.59
2023-02-17T10:14:12.535Z,98826.91
2023-02-17T10:16:51.649Z,98826.94
2023-02-17T10:19:29.640Z,98832.56
2023-02-17T10:22:08.643Z,98825.91
2023-02-17T10:24:35.188Z,98826.44
2023-02-17T10:27:48.497Z,98829.25
2023-02-17T10:30:33.195Z,98831.38
2023-02-17T10:33:17.504Z,98832.16
2023-02-17T10:36:26.283Z,98827.22
2023-02-17T10:39:11.686Z,98824.72
2023-02-17T10:41:41.051Z,98833.88
2023-02-17T10:44:19.918Z,98827.69
2023-02-17T10:46:48.498Z,98823.66
2023-02-17T10:49:38.268Z,98825.69
2023-02-17T10:52:16.293Z,98818.09
2023-02-17T10:54:54.086Z,98814.09
2023-02-17T10:57:26.213Z,98806.47
2023-02-17T10:59:53.821Z,98797.41
2023-02-17T11:02:38.138Z,98803.94
2023-02-17T11:05:06.060Z,98798.22
2023-02-17T11:07:42.130Z,98808.56
2023-02-17T11:10:30.412Z,98800.22
2023-02-17T11:12:58.593Z,98802.13
2023-02-17T11:15:35.451Z,98806.00
2023-02-17T11:18:18.002Z,98797.66
2023-02-17T11:20:44.676Z,98796.28
2023-02-17T11:23:14.181Z,98787.44
2023-02-17T11:25:42.116Z,98776.91
2023-02-17T11:28:23.996Z,98771.09
2023-02-17T11:30:58.418Z,98760.44
2023-02-17T11:33:37.691Z,98755.44
2023-02-17T11:36:08.226Z,98747.91
2023-02-17T11:38:45.671Z,98745.00
2023-02-17T11:41:12.284Z,98744.69
2023-02-17T11:43:54.252Z,98736.75
2023-02-17T11:46:36.073Z,98734.41
2023-02-17T11:49:31.087Z,98740.63
2023-02-17T11:52:24.046Z,98742.97
2023-02-17T11:55:24.487Z,98732.34
2023-02-17T11:58:24.058Z,98730.25
2023-02-17T12:01:16.447Z,98715.75
2023-02-17T12:04:24.660Z,98722.97
2023-02-17T12:07:21.659Z,98712.16
2023-02-17T12:10:05.593Z,98720.97
2023-02-17T12:12:55.462Z,98718.75
2023-02-17T12:15:48.648Z,98716.97
2023-02-17T12:18:42.612Z,98710.78
2023-02-17T12:21:54.079Z,98709.81
2023-02-17T12:25:03.529Z,98719.44
2023-02-17T12:27:57.975Z,98715.25
2023-02-17T12:30:55.154Z,98713.66
2023-02-17T12:33:53.846Z,98721.84
2023-02-17T12:36:25.795Z,98720.03
2023-02-17T12:39:09.784Z,98713.16
2023-02-17T12:41:56.620Z,98713.06
2023-02-17T12:44:37.673Z,98699.09
2023-02-17T12:47:17.486Z,98687.19
2023-02-17T12:50:02.776Z,98682.19
2023-02-17T12:52:38.994Z,98683.38
2023-02-17T12:55:20.636Z,98678.44
2023-02-17T12:57:57.988Z,98665.41
2023-02-17T13:00:34.303Z,98662.56
2023-02-17T13:03:07.596Z,98658.34
2023-02-17T13:05:47.608Z,98657.16
2023-02-17T13:08:29.331Z,98658.88
2023-02-17T13:11:14.383Z,98659.00
2023-02-17T13:13:40.890Z,98658.25
2023-02-17T13:16:14.808Z,98667.97
2023-02-17T13:18:45.321Z,98664.75
2023-02-17T13:21:22.636Z,98656.72
2023-02-17T13:24:12.923Z,98663.22
2023-02-17T13:26:43.044Z,98663.44
2023-02-17T13:29:24.428Z,98663.91
2023-02-17T13:31:58.133Z,98666.69
2023-02-17T13:34:31.010Z,98658.94
2023-02-17T13:36:58.889Z,98667.09
2023-02-17T13:39:28.410Z,98676.50
2023-02-17T13:42:00.743Z,98655.34
2023-02-17T13:44:33.571Z,98642.91
2023-02-17T13:47:07.430Z,98643.72
2023-02-17T13:49:35.130Z,98641.41
2023-02-17T13:52:23.793Z,98657.19
2023-02-17T13:55:03.820Z,98658.69
2023-02-17T13:57:36.660Z,98645.06
2023-02-17T14:00:13.088Z,98631.81
2023-02-17T14:02:50.712Z,98643.78
2023-02-17T14:05:40.324Z,98641.34
2023-02-17T14:08:17.173Z,98647.13
2023-02-17T14:10:44.748Z,98647.13
2023-02-17T14:13:15.210Z,98655.94
2023-02-17T14:15:58.476Z,98645.13
2023-02-17T14:18:41.880Z,98658.91
2023-02-17T14:21:25.052Z,98656.84
2023-02-17T14:23:55.022Z,98660.66
2023-02-17T14:26:39.287Z,98673.69
2023-02-17T14:29:10.955Z,98671.53
2023-02-17T14:31:46.976Z,98688.22
2023-02-17T14:34:30.474Z,98678.34
2023-02-17T14:37:18.511Z,98692.88
2023-02-17T14:39:45.111Z,98704.63
2023-02-17T14:42:11.658Z,98699.94
2023-02-17T14:44:39.539Z,98685.25
2023-02-17T14:47:06.716Z,98692.28
2023-02-17T14:49:33.210Z,98694.19
2023-02-17T14:52:20.680Z,98707.19
2023-02-17T14:54:47.257Z,98705.50
2023-02-17T14:57:15.825Z,98697.06
2023-02-17T14:59:43.037Z,98689.84
2023-02-17T15:02:17.726Z,98702.34
2023-02-17T15:04:44.321Z,98708.75
2023-02-17T15:07:17.464Z,98704.78
2023-02-17T15:09:47.360Z,98714.41
2023-02-17T15:12:20.949Z,98708.63
2023-02-17T15:14:48.443Z,98713.53
2023-02-17T15:17:16.464Z,98712.22
2023-02-17T15:19:44.740Z,98697.78
2023-02-17T15:22:13.556Z,98704.75
2023-02-17T15:24:41.220Z,98703.81
2023-02-17T15:27:14.061Z,98706.91
2023-02-17T15:29:41.023Z,98706.56
2023-02-17T15:32:18.866Z,98696.47
2023-02-17T15:34:46.357Z,98711.16
2023-02-17T15:37:12.849Z,98709.34
2023-02-17T15:39:40.439Z,98709.59
2023-02-17T15:42:13.653Z,98715.97
2023-02-17T15:44:47.698Z,98721.38
2023-02-17T15:47:19.507Z,98726.53
2023-02-17T15:49:46.511Z,98718.47
2023-02-17T15:52:15.055Z,98728.59
2023-02-17T15:54:42.658Z,98737.47
2023-02-17T15:57:22.012Z,98746.84
2023-02-17T15:59:49.151Z,98747.44
2023-02-17T16:02:23.196Z,98759.09
2023-02-17T16:04:50.347Z,98750.94
2023-02-17T16:07:25.586Z,98748.47
2023-02-17T16:09:52.136Z,98751.44
2023-02-17T16:12:27.001Z,98757.44
2023-02-17T16:14:54.573Z,98771.09
2023-02-17T16:17:21.077Z,98774.63
2023-02-17T16:19:47.669Z,98783.44
2023-02-17T16:22:14.350Z,98776.09
2023-02-17T16:24:40.817Z,98791.63
2023-02-17T16:27:14.373Z,98786.47
2023-02-17T16:29:42.651Z,98803.41
2023-02-17T16:32:13.552Z,98791.63
2023-02-17T16:34:40.643Z,98804.16
2023-02-17T16:37:16.231Z,98833.72
2023-02-17T16:39:44.259Z,98807.56
2023-02-17T16:42:12.266Z,98809.06
2023-02-17T16:44:38.978Z,98822.38
2023-02-17T16:47:07.931Z,98824.38
2023-02-17T16:49:39.771Z,98831.03
2023-02-17T16:52:23.388Z,98850.81
2023-02-17T16:54:49.896Z,98848.97
2023-02-17T16:57:19.049Z,98844.88
2023-02-17T16:59:46.847Z,98862.00
2023-02-17T17:02:13.755Z,98863.91
2023-02-17T17:04:40.345Z,98864.09
2023-02-17T17:07:07.870Z,98872.97
2023-02-17T17:09:34.573Z,98887.13
2023-02-17T17:12:01.080Z,98894.41
2023-02-17T17:14:27.600Z,98909.41
2023-02-17T17:17:01.380Z,98918.81
2023-02-17T17:19:30.487Z,98945.50
2023-02-17T17:21:56.975Z,98917.50
2023-02-17T17:24:23.529Z,98922.84
2023-02-17T17:26:51.476Z,98936.72
2023-02-17T17:29:19.634Z,98939.78
2023-02-17T17:31:47.056Z,98938.34
2023-02-17T17:34:13.965Z,98947.56
2023-02-17T17:36:45.116Z,98962.56
2023-02-17T17:39:23.962Z,98959.06
2023-02-17T17:41:51.385Z,98946.84
2023-02-17T17:44:18.928Z,98957.38
2023-02-17T17:46:45.452Z,98964.16
2023-02-17T17:49:18.077Z,98963.38
2023-02-17T17:51:44.815Z,98962.81
2023-02-17T17:54:11.955Z,98952.56
2023-02-17T17:56:47.872Z,98952.47
2023-02-17T17:59:14.751Z,98970.72
2023-02-17T18:01:42.767Z,98973.63
2023-02-17T18:04:11.102Z,98993.03
2023-02-17T18:06:41.646Z,98977.03
2023-02-17T18:09:25.735Z,98977.84
2023-02-17T18:12:04.337Z,98984.41
2023-02-17T18:14:31.896Z,98988.63
2023-02-17T18:17:01.645Z,98979.13
2023-02-17T18:19:31.550Z,98981.06
2023-02-17T18:21:58.119Z,98986.97
2023-02-17T18:24:24.607Z,98988.03
2023-02-17T18:26:52.178Z,98999.72
2023-02-17T18:29:19.829Z,98993.88
2023-02-17T18:31:47.015Z,99001.31
2023-02-17T18:34:13.787Z,99001.22
2023-02-17T18:36:40.423Z,99008.53
2023-02-17T18:39:06.965Z,99004.06
2023-02-17T18:41:35.438Z,99006.22
2023-02-17T18:44:04.696Z,99010.53
2023-02-17T18:46:33.154Z,99004.41
2023-02-17T18:49:00.757Z,99003.66
2023-02-17T18:51:27.685Z,99001.72
2023-02-17T18:53:56.493Z,99012.81
2023-02-17T18:56:27.205Z,99018.81
2023-02-17T18:58:57.937Z,99017.13
2023-02-17T19:01:32.624Z,99019.31
2023-02-17T19:03:59.506Z,99026.66
2023-02-17T19:06:32.308Z,99028.91
2023-02-17T19:09:06.312Z,99020.53
2023-02-17T19:11:34.780Z,99021.31
2023-02-17T19:14:02.941Z,99029.28
2023-02-17T19:16:32.553Z,99032.78
2023-02-17T19:19:00.020Z,99033.34
2023-02-17T19:21:26.665Z,99032.03
2023-02-17T19:23:53.942Z,99044.44
2023-02-17T19:26:21.375Z,99037.97
2023-02-17T19:28:48.591Z,99037.94
2023-02-17T19:31:21.769Z,99046.25
2023-02-17T19:33:48.554Z,99050.97
2023-02-17T19:36:19.329Z,99057.34
2023-02-17T19:38:48.274Z,99048.41
2023-02-17T19:41:15.981Z,99057.94
2023-02-17T19:43:43.673Z,99047.38
2023-02-17T19:46:18.046Z,99055.00
2023-02-17T19:48:44.586Z,99054.34
2023-02-17T19:51:14.838Z,99056.50
2023-02-17T19:53:43.364Z,99065.00
2023-02-17T19:56:23.837Z,99054.16
2023-02-17T19:58:51.208Z,99057.41
2023-02-17T20:01:31.584Z,99061.00
2023-02-17T20:04:01.363Z,99061.50
2023-02-17T20:06:48.037Z,99072.25
2023-02-17T20:09:20.124Z,99074.47
2023-02-17T20:11:48.775Z,99072.78
2023-02-17T20:14:15.841Z,99069.38
2023-02-17T20:16:42.443Z,99082.56
2023-02-17T20:19:09.139Z,99083.31
2023-02-17T20:21:38.436Z,99074.81
2023-02-17T20:24:05.613Z,99076.16
2023-02-17T20:26:39.202Z,99078.59
2023-02-17T20:29:05.982Z,99081.09
2023-02-17T20:31:34.504Z,99080.09
2023-02-17T20:34:04.058Z,99083.97
2023-02-17T20:36:30.716Z,99080.56
2023-02-17T20:38:57.319Z,99078.03
2023-02-17T20:41:24.376Z,99072.66
2023-02-17T20:43:52.481Z,99088.41
2023-02-17T20:46:27.134Z,99090.09
2023-02-17T20:48:54.307Z,99086.63
2023-02-17T20:51:21.277Z,99087.09
2023-02-17T20:53:48.518Z,99085.22
2023-02-17T20:56:20.217Z,99083.31
2023-02-17T20:58:47.267Z,99086.38
2023-02-17T21:01:14.616Z,99085.28
2023-02-17T21:03:41.157Z,99084.59
2023-02-17T21:06:22.043Z,99076.69
2023-02-17T21:08:55.884Z,99088.38
2023-02-17T21:11:24.210Z,99080.84
2023-02-17T21:13:50.827Z,99084.31
2023-02-17T21:16:22.876Z,99094.59
2023-02-17T21:18:49.380Z,99084.25
2023-02-17T21:21:16.552Z,99086.41
2023-02-17T21:23:43.500Z,99090.28
2023-02-17T21:26:12.869Z,99097.81
2023-02-17T21:28:39.577Z,99099.28
2023-02-17T21:31:07.137Z,99103.44
2023-02-17T21:33:34.180Z,99094.31
2023-02-17T21:36:05.777Z,99100.63
2023-02-17T21:38:32.493Z,99095.34
2023-02-17T21:41:06.834Z,99103.06
2023-02-17T21:43:51.815Z,99099.13
2023-02-17T21:46:19.782Z,99106.75
2023-02-17T21:48:46.224Z,99098.53
2023-02-17T21:51:12.857Z,99102.31
2023-02-17T21:53:39.831Z,99089.03
2023-02-17T21:56:07.228Z,99087.63
2023-02-17T21:58:34.612Z,99096.13
2023-02-17T22:01:01.205Z,99102.66
2023-02-17T22:03:27.955Z,99093.81
2023-02-17T22:05:54.485Z,99094.84
2023-02-17T22:08:21.159Z,99091.00
2023-02-17T22:10:47.978Z,99092.22
2023-02-17T22:13:14.480Z,99085.16
2023-02-17T22:15:41.440Z,99093.06
2023-02-17T22:18:07.909Z,99095.69
2023-02-17T22:20:35.554Z,99092.13
2023-02-17T22:23:02.012Z,99088.19
2023-02-17T22:25:28.724Z,99095.44
2023-02-17T22:27:55.197Z,99104.00
2023-02-17T22:30:21.673Z,99102.03
2023-02-17T22:32:48.174Z,99107.56
2023-02-17T22:35:15.031Z,99093.91
2023-02-17T22:37:41.541Z,99111.69
2023-02-17T22:40:08.813Z,99099.47
2023-02-17T22:42:35.276Z,99104.91
2023-02-17T22:45:01.739Z,99095.88
2023-02-17T22:47:28.234Z,99096.56
2023-02-17T22:49:54.727Z,99092.69
2023-02-17T22:52:21.235Z,99089.41
2023-02-17T22:54:48.297Z,99087.41
2023-02-17T22:57:14.852Z,99080.06
2023-02-17T22:59:41.332Z,99085.53
2023-02-17T23:02:07.856Z,99082.50
2023-02-17T23:04:34.428Z,99083.28
2023-02-17T23:07:00.947Z,99078.00
2023-02-17T23:09:27.599Z,99088.59
2023-02-17T23:11:58.233Z,99084.69
2023-02-17T23:14:26.465Z,99082.22
2023-02-17T23:16:58.043Z,99077.34
2023-02-17T23:19:25.062Z,99085.63
2023-02-17T23:21:58.462Z,99085.97
2023-02-17T23:24:26.979Z,99078.53
2023-02-17T23:26:56.251Z,99084.19
2023-02-17T23:29:23.378Z,99071.97
2023-02-17T23:31:49.953Z,99076.22
2023-02-17T23:34:17.085Z,99075.94
2023-02-17T23:36:45.679Z,99077.16
2023-02-17T23:39:15.037Z,99071.00
2023-02-17T23:41:41.524Z,99068.22
2023-02-17T23:44:10.624Z,99071.50
2023-02-17T23:46:38.324Z,99069.72
2023-02-17T23:49:06.003Z,99076.16
2023-02-17T23:51:32.807Z,99069.66
2023-02-17T23:54:00.538Z,99086.19
2023-02-17T23:56:34.485Z,99068.53
2023-02-17T23:59:01.564Z,99077.59
